
Distance (Route):
Temperature : -25.7°C
Humidity : 0%
Pressure : 0hPa| Receiver | Frames | First received | Last received |
|---|---|---|---|
| KE7DJD | 30 | 2026-09-02 19:09:04 | 2026-09-02 19:20:36 |
| Receiver | Date | Latitude | Longitude | Direction | Speed | Altitude | Climb | Temperature | Humidity | Pressure | Voltage | Killtimer | Uptime | BKT | XDATA |
|---|---|---|---|---|---|---|---|---|---|---|---|---|---|---|---|
| KE7DJD | 2026-09-02 19:20:36 | 41.52540 | -114.73706 | 48° | 89km/h | 8616m | -5.3m/s | -25.7°C | 0% | 0hPa | 0V | 00:00:00 | 00:00:00 | 00:00:00 | |
| KE7DJD | 2026-09-02 19:20:12 | 41.52181 | -114.74223 | 47° | 84km/h | 8744m | -5.4m/s | -26.7°C | 0% | 0hPa | 0V | 00:00:00 | 00:00:00 | 00:00:00 | |
| KE7DJD | 2026-09-02 19:18:44 | 41.50851 | -114.76044 | 44° | 89km/h | 9236m | -5.5m/s | -30.9°C | 0% | 0hPa | 0V | 00:00:00 | 00:00:00 | 00:00:00 | |
| KE7DJD | 2026-09-02 19:18:23 | 41.50508 | -114.76469 | 41° | 88km/h | 9348m | -5.6m/s | -31.8°C | 0% | 0hPa | 0V | 00:00:00 | 00:00:00 | 00:00:00 | |
| KE7DJD | 2026-09-02 19:18:03 | 41.50150 | -114.76883 | 43° | 93km/h | 9466m | -5.7m/s | -32.8°C | 0% | 0hPa | 0V | 00:00:00 | 00:00:00 | 00:00:00 | |
| KE7DJD | 2026-09-02 19:17:42 | 41.49777 | -114.77332 | 42° | 99km/h | 9585m | -5.7m/s | -33.6°C | 0% | 0hPa | 0V | 00:00:00 | 00:00:00 | 00:00:00 | |
| KE7DJD | 2026-09-02 19:17:20 | 41.49366 | -114.77832 | 42° | 102km/h | 9709m | -5.7m/s | -34.5°C | 0% | 0hPa | 0V | 00:00:00 | 00:00:00 | 00:00:00 | |
| KE7DJD | 2026-09-02 19:16:59 | 41.48981 | -114.78282 | 43° | 102km/h | 9824m | -5.9m/s | -35.6°C | 0% | 0hPa | 0V | 00:00:00 | 00:00:00 | 00:00:00 | |
| KE7DJD | 2026-09-02 19:16:39 | 41.48568 | -114.78761 | 43° | 104km/h | 9946m | -5.7m/s | -36.5°C | 0% | 0hPa | 0V | 00:00:00 | 00:00:00 | 00:00:00 | |
| KE7DJD | 2026-09-02 19:16:18 | 41.48167 | -114.79234 | 43° | 110km/h | 10060m | -5.9m/s | -37.6°C | 0% | 0hPa | 0V | 00:00:00 | 00:00:00 | 00:00:00 | |
| KE7DJD | 2026-09-02 19:15:58 | 41.47740 | -114.79738 | 44° | 106km/h | 10181m | -5.9m/s | -38.6°C | 0% | 0hPa | 0V | 00:00:00 | 00:00:00 | 00:00:00 | |
| KE7DJD | 2026-09-02 19:15:37 | 41.47325 | -114.80263 | 44° | 108km/h | 10304m | -5.9m/s | -39.8°C | 0% | 0hPa | 0V | 00:00:00 | 00:00:00 | 00:00:00 | |
| KE7DJD | 2026-09-02 19:15:16 | 41.46937 | -114.80766 | 46° | 104km/h | 10418m | -5.7m/s | -40.9°C | 0% | 0hPa | 0V | 00:00:00 | 00:00:00 | 00:00:00 | |
| KE7DJD | 2026-09-02 19:14:56 | 41.46535 | -114.81287 | 45° | 102km/h | 10542m | -6.1m/s | -42.0°C | 0% | 0hPa | 0V | 00:00:00 | 00:00:00 | 00:00:00 | |
| KE7DJD | 2026-09-02 19:14:35 | 41.46168 | -114.81774 | 47° | 102km/h | 10660m | -6.1m/s | -43.1°C | 0% | 0hPa | 0V | 00:00:00 | 00:00:00 | 00:00:00 | |
| KE7DJD | 2026-09-02 19:14:15 | 41.45806 | -114.82284 | 50° | 102km/h | 10785m | -5.8m/s | -44.0°C | 0% | 0hPa | 0V | 00:00:00 | 00:00:00 | 00:00:00 | |
| KE7DJD | 2026-09-02 19:13:54 | 41.45440 | -114.82829 | 50° | 102km/h | 10909m | -5.8m/s | -45.1°C | 0% | 0hPa | 0V | 00:00:00 | 00:00:00 | 00:00:00 | |
| KE7DJD | 2026-09-02 19:13:34 | 41.45095 | -114.83346 | 52° | 100km/h | 11027m | -5.9m/s | -46.1°C | 0% | 0hPa | 0V | 00:00:00 | 00:00:00 | 00:00:00 | |
| KE7DJD | 2026-09-02 19:13:13 | 41.44769 | -114.83872 | 53° | 100km/h | 11148m | -6.2m/s | -47.0°C | 0% | 0hPa | 0V | 00:00:00 | 00:00:00 | 00:00:00 | |
| KE7DJD | 2026-09-02 19:12:53 | 41.44447 | -114.84429 | 55° | 99km/h | 11278m | -6.2m/s | -47.9°C | 0% | 0hPa | 0V | 00:00:00 | 00:00:00 | 00:00:00 | |
| KE7DJD | 2026-09-02 19:12:32 | 41.44160 | -114.84960 | 56° | 100km/h | 11405m | -6.3m/s | -48.8°C | 0% | 0hPa | 0V | 00:00:00 | 00:00:00 | 00:00:00 | |
| KE7DJD | 2026-09-02 19:12:12 | 41.43845 | -114.85563 | 59° | 111km/h | 11541m | -6.5m/s | -49.3°C | 0% | 0hPa | 0V | 00:00:00 | 00:00:00 | 00:00:00 | |
| KE7DJD | 2026-09-02 19:11:51 | 41.43549 | -114.86223 | 61° | 111km/h | 11675m | -6.8m/s | -48.6°C | 0% | 0hPa | 0V | 00:00:00 | 00:00:00 | 00:00:00 | |
| KE7DJD | 2026-09-02 19:11:31 | 41.43255 | -114.86906 | 59° | 113km/h | 11820m | -6.9m/s | -48.2°C | 0% | 0hPa | 0V | 00:00:00 | 00:00:00 | 00:00:00 | |
| KE7DJD | 2026-09-02 19:11:10 | 41.42951 | -114.87602 | 60° | 117km/h | 11967m | -6.8m/s | -48.3°C | 0% | 0hPa | 0V | 00:00:00 | 00:00:00 | 00:00:00 | |
| KE7DJD | 2026-09-02 19:10:28 | 41.42302 | -114.88976 | 60° | 110km/h | 12261m | -6.8m/s | -47.6°C | 0% | 0hPa | 0V | 00:00:00 | 00:00:00 | 00:00:00 | |
| KE7DJD | 2026-09-02 19:10:07 | 41.42016 | -114.89586 | 61° | 93km/h | 12406m | -6.7m/s | -46.7°C | 0% | 0hPa | 0V | 00:00:00 | 00:00:00 | 00:00:00 | |
| KE7DJD | 2026-09-02 19:09:46 | 41.41751 | -114.90101 | 55° | 97km/h | 12547m | -7.2m/s | -46.4°C | 0% | 0hPa | 0V | 00:00:00 | 00:00:00 | 00:00:00 | |
| KE7DJD | 2026-09-02 19:09:26 | 41.41409 | -114.90676 | 52° | 111km/h | 12698m | -7.2m/s | -46.1°C | 0% | 0hPa | 0V | 00:00:00 | 00:00:00 | 00:00:00 | |
| KE7DJD | 2026-09-02 19:09:04 | 41.41030 | -114.91274 | 49° | 106km/h | 12852m | -7.3m/s | -46.6°C | 0% | 0hPa | 0V | 00:00:00 | 00:00:00 | 00:00:00 |